createdAt,value
2017-07-17T00:00:01.114Z,6.07
2017-07-17T00:02:28.526Z,6.40
2017-07-17T00:04:55.965Z,5.77
2017-07-17T00:07:23.404Z,5.93
2017-07-17T00:09:50.828Z,5.77
2017-07-17T00:12:18.257Z,6.03
2017-07-17T00:14:45.677Z,5.60
2017-07-17T00:17:13.160Z,6.60
2017-07-17T00:19:40.587Z,6.20
2017-07-17T00:22:08.017Z,6.03
2017-07-17T00:24:35.442Z,6.63
2017-07-17T00:27:03.648Z,5.50
2017-07-17T00:29:31.069Z,6.37
2017-07-17T00:31:58.493Z,6.40
2017-07-17T00:34:25.939Z,6.23
2017-07-17T00:36:53.354Z,6.80
2017-07-17T00:39:21.567Z,6.93
2017-07-17T00:41:48.987Z,6.83
2017-07-17T00:44:16.417Z,7.40
2017-07-17T00:46:43.863Z,6.47
2017-07-17T00:49:11.341Z,7.10
2017-07-17T00:51:38.775Z,6.23
2017-07-17T00:54:06.205Z,6.70
2017-07-17T00:56:33.665Z,6.50
2017-07-17T00:59:01.091Z,6.60
2017-07-17T01:01:28.522Z,7.43
2017-07-17T01:03:56.859Z,6.90
2017-07-17T01:06:24.293Z,7.23
2017-07-17T01:08:51.721Z,7.53
2017-07-17T01:11:19.158Z,7.23
2017-07-17T01:13:47.360Z,6.70
2017-07-17T01:16:14.808Z,7.30
2017-07-17T01:18:42.998Z,7.30
2017-07-17T01:21:10.421Z,7.00
2017-07-17T01:23:38.616Z,7.37
2017-07-17T01:26:06.046Z,7.77
2017-07-17T01:28:34.242Z,7.60
2017-07-17T01:31:01.681Z,6.67
2017-07-17T01:33:29.877Z,7.07
2017-07-17T01:35:57.320Z,6.70
2017-07-17T01:38:25.507Z,6.87
2017-07-17T01:40:52.961Z,7.30
2017-07-17T01:43:20.712Z,7.20
2017-07-17T01:45:48.900Z,7.93
2017-07-17T01:48:16.337Z,8.30
2017-07-17T01:50:44.533Z,8.07
2017-07-17T01:53:11.971Z,8.40
2017-07-17T01:55:40.165Z,8.10
2017-07-17T01:58:07.618Z,7.63
2017-07-17T02:00:35.077Z,8.20
2017-07-17T02:03:02.523Z,7.50
2017-07-17T02:05:30.706Z,8.20
2017-07-17T02:07:58.133Z,8.40
2017-07-17T02:10:26.320Z,8.30
2017-07-17T02:12:53.759Z,7.23
2017-07-17T02:15:21.950Z,8.20
2017-07-17T02:17:49.400Z,8.30
2017-07-17T02:20:17.590Z,8.47
2017-07-17T02:22:45.009Z,8.10
2017-07-17T02:25:13.211Z,8.47
2017-07-17T02:27:40.642Z,8.50
2017-07-17T02:30:08.845Z,8.83
2017-07-17T02:32:36.284Z,9.40
2017-07-17T02:35:04.473Z,8.53
2017-07-17T02:37:31.916Z,9.60
2017-07-17T02:40:00.106Z,8.77
2017-07-17T02:42:27.547Z,9.47
2017-07-17T02:44:55.735Z,9.47
2017-07-17T02:47:23.163Z,9.00
2017-07-17T02:49:51.362Z,8.67
2017-07-17T02:54:52.598Z,9.40
2017-07-17T02:57:20.830Z,9.00
2017-07-17T02:59:48.281Z,10.33
2017-07-17T03:02:15.723Z,10.57
2017-07-17T03:04:43.228Z,9.90
2017-07-17T03:07:10.661Z,9.30
2017-07-17T03:09:38.098Z,9.67
2017-07-17T03:12:05.543Z,8.30
2017-07-17T03:14:32.969Z,8.60
2017-07-17T03:17:01.199Z,9.00
2017-07-17T03:19:28.617Z,8.77
2017-07-17T03:21:56.056Z,9.33
2017-07-17T03:24:24.249Z,9.27
2017-07-17T03:26:51.708Z,8.90
2017-07-17T03:29:19.152Z,9.30
2017-07-17T03:31:47.374Z,10.17
2017-07-17T03:34:14.818Z,10.03
2017-07-17T03:36:42.252Z,9.00
2017-07-17T03:39:09.678Z,9.37
2017-07-17T03:41:37.122Z,8.57
2017-07-17T03:44:04.637Z,9.10
2017-07-17T03:46:32.065Z,9.23
2017-07-17T03:48:59.520Z,9.77
2017-07-17T03:51:26.954Z,10.03
2017-07-17T03:53:55.177Z,10.83
2017-07-17T03:56:22.609Z,11.03
2017-07-17T03:58:50.061Z,11.03
2017-07-17T04:01:17.493Z,11.77
2017-07-17T04:03:45.714Z,12.70
2017-07-17T04:06:13.139Z,11.73
2017-07-17T04:08:40.583Z,13.37
2017-07-17T04:11:08.002Z,13.47
2017-07-17T04:13:35.441Z,12.90
2017-07-17T04:16:02.881Z,13.57
2017-07-17T04:18:30.334Z,13.43
2017-07-17T04:20:57.765Z,13.10
2017-07-17T04:23:25.964Z,12.73
2017-07-17T04:25:53.413Z,13.23
2017-07-17T04:28:20.838Z,14.13
2017-07-17T04:30:49.046Z,13.13
2017-07-17T04:33:16.505Z,14.00
2017-07-17T04:35:43.930Z,13.50
2017-07-17T04:38:12.170Z,15.10
2017-07-17T04:40:39.598Z,13.40
2017-07-17T04:43:07.043Z,13.07
2017-07-17T04:45:34.526Z,13.33
2017-07-17T04:48:01.961Z,14.60
2017-07-17T04:50:29.390Z,14.83
2017-07-17T04:52:57.596Z,13.30
2017-07-17T04:55:25.115Z,14.30
2017-07-17T04:57:53.313Z,13.27
2017-07-17T05:00:20.740Z,13.60
2017-07-17T05:02:48.926Z,13.90
2017-07-17T05:05:16.376Z,14.70
2017-07-17T05:07:43.805Z,14.30
2017-07-17T05:10:11.236Z,13.17
2017-07-17T05:12:38.669Z,13.77
2017-07-17T05:15:06.105Z,12.40
2017-07-17T05:17:34.344Z,13.10
2017-07-17T05:20:01.774Z,12.90
2017-07-17T05:22:29.245Z,11.90
2017-07-17T05:24:56.673Z,10.87
2017-07-17T05:27:24.116Z,12.70
2017-07-17T05:29:51.549Z,11.10
2017-07-17T05:32:19.754Z,10.00
2017-07-17T05:34:47.209Z,10.70
2017-07-17T05:37:14.638Z,10.30
2017-07-17T05:39:42.860Z,10.30
2017-07-17T05:42:10.317Z,10.30
2017-07-17T05:44:37.751Z,10.13
2017-07-17T05:47:05.172Z,10.10
2017-07-17T05:49:33.386Z,10.00
2017-07-17T05:52:00.807Z,10.40
2017-07-17T05:54:29.006Z,9.40
2017-07-17T05:56:56.445Z,10.00
2017-07-17T05:59:23.935Z,10.20
2017-07-17T06:01:51.393Z,9.37
2017-07-17T06:04:18.833Z,8.50
2017-07-17T06:06:46.257Z,7.80
2017-07-17T06:09:14.468Z,9.07
2017-07-17T06:11:41.891Z,7.57
2017-07-17T06:14:09.346Z,8.20
2017-07-17T06:16:37.553Z,7.70
2017-07-17T06:19:04.995Z,7.60
2017-07-17T06:21:32.461Z,7.40
2017-07-17T06:23:59.891Z,7.77
2017-07-17T06:26:28.094Z,7.40
2017-07-17T06:28:55.530Z,7.53
2017-07-17T06:31:22.983Z,6.87
2017-07-17T06:33:50.439Z,7.00
2017-07-17T06:36:18.691Z,7.00
2017-07-17T06:38:46.122Z,6.97
2017-07-17T06:41:13.555Z,7.40
2017-07-17T06:43:41.017Z,7.63
2017-07-17T06:46:08.450Z,7.77
2017-07-17T06:48:35.894Z,7.10
2017-07-17T06:51:04.095Z,6.13
2017-07-17T06:53:31.524Z,6.40
2017-07-17T06:55:58.956Z,6.83
2017-07-17T06:58:27.167Z,7.00
2017-07-17T07:00:54.603Z,6.67
2017-07-17T07:03:22.058Z,6.20
2017-07-17T07:05:50.260Z,6.57
2017-07-17T07:08:17.716Z,6.60
2017-07-17T07:10:45.903Z,6.50
2017-07-17T07:13:13.329Z,5.77
2017-07-17T07:15:40.818Z,6.27
2017-07-17T07:18:08.249Z,5.93
2017-07-17T07:20:35.681Z,5.87
2017-07-17T07:23:03.123Z,6.30
2017-07-17T07:25:31.321Z,5.50
2017-07-17T07:27:58.756Z,6.03
2017-07-17T07:30:26.964Z,6.30
2017-07-17T07:32:54.387Z,5.03
2017-07-17T07:35:22.595Z,5.53
2017-07-17T07:37:50.041Z,4.50
2017-07-17T07:40:17.477Z,4.50
2017-07-17T07:42:45.687Z,5.63
2017-07-17T07:45:13.109Z,4.93
2017-07-17T07:47:41.340Z,5.40
2017-07-17T07:50:08.806Z,5.23
2017-07-17T07:52:36.387Z,4.43
2017-07-17T07:55:03.827Z,5.33
2017-07-17T07:57:31.309Z,5.77
2017-07-17T07:59:59.601Z,5.23
2017-07-17T08:02:27.062Z,4.80
2017-07-17T08:04:54.517Z,4.87
2017-07-17T08:07:21.976Z,4.40
2017-07-17T08:09:49.419Z,7.20
2017-07-17T08:12:17.619Z,5.53
2017-07-17T08:14:45.048Z,5.37
2017-07-17T08:17:13.244Z,4.63
2017-07-17T08:19:40.678Z,4.80
2017-07-17T08:22:08.892Z,8.53
2017-07-17T08:24:36.298Z,5.00
2017-07-17T08:27:03.731Z,5.10
2017-07-17T08:29:31.166Z,4.90
2017-07-17T08:31:58.594Z,5.30
2017-07-17T08:34:26.110Z,4.90
2017-07-17T08:36:53.528Z,5.40
2017-07-17T08:39:20.959Z,5.60
2017-07-17T08:41:48.375Z,4.00
2017-07-17T08:44:15.898Z,4.03
2017-07-17T08:46:43.328Z,3.70
2017-07-17T08:49:10.745Z,3.90
2017-07-17T08:51:38.185Z,3.80
2017-07-17T08:54:05.610Z,3.93
2017-07-17T08:56:33.044Z,3.67
2017-07-17T08:59:00.473Z,4.53
2017-07-17T09:01:28.686Z,4.53
2017-07-17T09:03:56.115Z,4.03
2017-07-17T09:06:24.346Z,3.90
2017-07-17T09:08:51.774Z,4.37
2017-07-17T09:11:19.213Z,4.10
2017-07-17T09:13:47.405Z,3.70
2017-07-17T09:16:14.829Z,4.50
2017-07-17T09:18:43.049Z,4.67
2017-07-17T09:21:10.521Z,4.20
2017-07-17T09:23:37.951Z,3.90
2017-07-17T09:26:05.382Z,3.40
2017-07-17T09:28:33.560Z,3.30
2017-07-17T09:31:01.753Z,3.37
2017-07-17T09:33:29.203Z,3.63
2017-07-17T09:35:56.623Z,3.23
2017-07-17T09:38:24.879Z,3.20
2017-07-17T09:40:52.297Z,3.57
2017-07-17T09:43:19.725Z,3.67
2017-07-17T09:45:47.168Z,3.50
2017-07-17T09:48:14.576Z,3.10
2017-07-17T09:50:42.086Z,3.10
2017-07-17T09:53:10.273Z,3.90
2017-07-17T09:55:37.705Z,3.90
2017-07-17T09:58:05.941Z,3.10
2017-07-17T10:00:33.369Z,3.50
2017-07-17T10:03:00.792Z,3.20
2017-07-17T10:05:28.974Z,3.43
2017-07-17T10:07:56.404Z,3.33
2017-07-17T10:10:23.845Z,3.63
2017-07-17T10:12:51.283Z,3.40
2017-07-17T10:15:18.702Z,3.10
2017-07-17T10:17:46.133Z,3.30
2017-07-17T10:20:13.566Z,3.43
2017-07-17T10:22:41.008Z,3.43
2017-07-17T10:25:08.422Z,4.00
2017-07-17T10:27:35.855Z,3.70
2017-07-17T10:30:03.282Z,4.30
2017-07-17T10:32:30.733Z,4.30
2017-07-17T10:34:58.156Z,3.50
2017-07-17T10:37:25.652Z,3.40
2017-07-17T10:39:53.114Z,3.10
2017-07-17T10:42:20.568Z,2.67
2017-07-17T10:44:47.985Z,3.60
2017-07-17T10:47:15.432Z,2.77
2017-07-17T10:49:42.870Z,2.60
2017-07-17T10:52:11.065Z,2.80
2017-07-17T10:54:38.501Z,3.93
2017-07-17T10:57:06.702Z,3.17
2017-07-17T10:59:34.186Z,3.37
2017-07-17T11:02:01.611Z,3.17
2017-07-17T11:04:29.025Z,3.20
2017-07-17T11:06:56.562Z,3.43
2017-07-17T11:09:23.990Z,2.90
2017-07-17T11:11:51.417Z,3.00
2017-07-17T11:14:19.617Z,3.20
2017-07-17T11:16:47.049Z,3.40
2017-07-17T11:19:15.262Z,2.93
2017-07-17T11:21:42.697Z,3.20
2017-07-17T11:24:10.127Z,3.23
2017-07-17T11:26:38.367Z,3.67
2017-07-17T11:29:05.806Z,2.90
2017-07-17T11:31:33.359Z,3.50
2017-07-17T11:34:00.812Z,2.90
2017-07-17T11:36:28.232Z,3.20
2017-07-17T11:38:56.458Z,3.60
2017-07-17T11:41:23.877Z,3.37
2017-07-17T11:43:51.313Z,3.30
2017-07-17T11:56:30.964Z,2.87
2017-07-17T11:58:58.393Z,3.20
2017-07-17T12:01:25.837Z,3.53
2017-07-17T12:03:53.342Z,3.00
2017-07-17T12:06:20.766Z,3.17
2017-07-17T12:08:48.204Z,2.90
2017-07-17T12:11:15.631Z,2.60
2017-07-17T12:13:43.101Z,2.70
2017-07-17T12:16:11.341Z,2.53
2017-07-17T12:18:38.757Z,2.40
2017-07-17T12:21:06.220Z,2.23
2017-07-17T12:23:34.408Z,2.53
2017-07-17T12:26:01.892Z,3.10
2017-07-17T12:28:29.321Z,2.23
2017-07-17T12:30:56.752Z,2.20
2017-07-17T12:33:24.206Z,1.97
2017-07-17T12:35:51.702Z,1.80
2017-07-17T12:38:19.133Z,2.10
2017-07-17T12:40:46.664Z,1.90
2017-07-17T12:43:14.858Z,2.00
2017-07-17T12:45:42.348Z,1.70
2017-07-17T12:48:09.761Z,1.90
2017-07-17T12:50:37.186Z,1.70
2017-07-17T12:53:04.617Z,1.77
2017-07-17T12:55:32.040Z,1.90
2017-07-17T12:57:59.517Z,1.90
2017-07-17T13:00:26.999Z,2.33
2017-07-17T13:02:54.405Z,1.70
2017-07-17T13:05:21.901Z,1.87
2017-07-17T13:07:49.336Z,1.70
2017-07-17T13:10:16.746Z,1.97
2017-07-17T13:12:44.928Z,2.00
2017-07-17T13:15:13.115Z,2.30
2017-07-17T13:17:40.558Z,2.03
2017-07-17T13:20:08.752Z,1.60
2017-07-17T13:22:36.228Z,2.20
2017-07-17T13:25:03.665Z,2.00
2017-07-17T13:27:31.137Z,1.97
2017-07-17T13:29:58.546Z,1.80
2017-07-17T13:32:25.969Z,2.20
2017-07-17T13:34:53.420Z,1.90
2017-07-17T13:37:20.832Z,2.27
2017-07-17T13:39:48.340Z,1.70
2017-07-17T13:42:15.803Z,1.70
2017-07-17T13:44:43.241Z,1.70
2017-07-17T13:47:10.688Z,1.67
2017-07-17T13:49:38.133Z,1.77
2017-07-17T13:52:05.586Z,1.80
2017-07-17T13:54:33.058Z,1.80
2017-07-17T13:57:00.517Z,2.10
2017-07-17T13:59:27.938Z,2.80
2017-07-17T14:01:55.361Z,1.80
2017-07-17T14:04:22.789Z,1.50
2017-07-17T14:06:50.208Z,1.40
2017-07-17T14:09:17.693Z,1.70
2017-07-17T14:11:45.112Z,1.83
2017-07-17T14:14:12.609Z,1.70
2017-07-17T14:16:40.031Z,1.77
2017-07-17T14:19:07.488Z,2.00
2017-07-17T14:21:34.976Z,1.73
2017-07-17T14:24:02.399Z,1.63
2017-07-17T14:26:29.881Z,1.60
2017-07-17T14:28:57.290Z,1.70
2017-07-17T14:31:24.718Z,1.70
2017-07-17T14:33:52.136Z,1.87
2017-07-17T14:36:19.610Z,1.60
2017-07-17T14:38:47.033Z,1.43
2017-07-17T14:41:14.448Z,1.67
2017-07-17T14:43:41.876Z,1.90
2017-07-17T14:46:09.306Z,1.50
2017-07-17T14:48:36.725Z,1.90
2017-07-17T14:51:04.176Z,1.50
2017-07-17T14:53:31.605Z,1.53
2017-07-17T14:55:59.041Z,1.73
2017-07-17T14:58:26.464Z,1.87
2017-07-17T15:00:53.912Z,2.00
2017-07-17T15:03:22.900Z,2.00
2017-07-17T15:05:51.093Z,1.77
2017-07-17T15:08:18.510Z,1.73
2017-07-17T15:10:45.941Z,1.50
2017-07-17T15:13:13.374Z,1.70
2017-07-17T15:15:40.807Z,1.30
2017-07-17T15:18:08.995Z,1.43
2017-07-17T15:20:36.410Z,1.77
2017-07-17T15:23:03.840Z,1.70
2017-07-17T15:25:31.268Z,1.50
2017-07-17T15:27:58.687Z,1.47
2017-07-17T15:30:26.100Z,1.70
2017-07-17T15:32:53.535Z,1.90
2017-07-17T15:35:21.019Z,2.00
2017-07-17T15:37:48.448Z,2.00
2017-07-17T15:40:15.864Z,1.77
2017-07-17T15:42:43.288Z,2.10
2017-07-17T15:45:10.715Z,1.50
2017-07-17T15:47:38.199Z,1.70
2017-07-17T15:50:05.621Z,1.40
2017-07-17T15:52:33.050Z,1.70
2017-07-17T15:55:01.288Z,1.60
2017-07-17T15:57:28.708Z,1.70
2017-07-17T15:59:56.134Z,1.70
2017-07-17T16:02:23.552Z,1.93
2017-07-17T16:04:50.985Z,2.63
2017-07-17T16:07:18.429Z,2.10
2017-07-17T16:09:45.854Z,1.70
2017-07-17T16:12:13.278Z,1.83
2017-07-17T16:14:40.701Z,2.60
2017-07-17T16:17:08.128Z,2.00
2017-07-17T16:19:36.373Z,1.80
2017-07-17T16:22:03.812Z,1.90
2017-07-17T16:24:31.233Z,1.60
2017-07-17T16:26:58.661Z,1.60
2017-07-17T16:29:26.084Z,1.83
2017-07-17T16:31:53.531Z,2.50
2017-07-17T16:34:20.932Z,2.20
2017-07-17T16:36:48.351Z,2.40
2017-07-17T16:39:15.803Z,2.30
2017-07-17T16:41:43.247Z,2.37
2017-07-17T16:44:10.660Z,1.50
2017-07-17T16:46:38.841Z,1.90
2017-07-17T16:49:06.337Z,1.53
2017-07-17T16:51:33.776Z,1.80
2017-07-17T16:54:01.209Z,1.73
2017-07-17T16:56:29.396Z,1.80
2017-07-17T16:58:56.895Z,1.97
2017-07-17T17:01:24.313Z,2.00
2017-07-17T17:03:51.813Z,2.17
2017-07-17T17:06:19.234Z,2.20
2017-07-17T17:08:46.662Z,3.07
2017-07-17T17:11:14.070Z,2.00
2017-07-17T17:13:41.500Z,2.00
2017-07-17T17:16:08.922Z,1.87
2017-07-17T17:18:37.131Z,1.90
2017-07-17T17:21:04.529Z,2.10
2017-07-17T17:23:31.948Z,2.20
2017-07-17T17:26:00.137Z,2.13
2017-07-17T17:28:27.564Z,1.93
2017-07-17T17:30:54.988Z,2.40
2017-07-17T17:33:22.412Z,2.47
2017-07-17T17:35:49.914Z,1.83
2017-07-17T17:38:17.325Z,2.57
2017-07-17T17:40:44.735Z,2.13
2017-07-17T17:43:12.154Z,2.27
2017-07-17T17:45:39.594Z,2.17
2017-07-17T17:48:07.762Z,1.77
2017-07-17T17:50:35.182Z,2.27
2017-07-17T17:53:02.593Z,1.90
2017-07-17T17:55:30.045Z,2.10
2017-07-17T17:57:57.457Z,2.30
2017-07-17T18:00:25.659Z,1.97
2017-07-17T18:02:53.082Z,2.10
2017-07-17T18:05:20.500Z,1.80
2017-07-17T18:07:47.924Z,1.77
2017-07-17T18:10:15.353Z,1.87
2017-07-17T18:12:43.584Z,2.07
2017-07-17T18:15:11.007Z,1.73
2017-07-17T18:17:38.422Z,2.13
2017-07-17T18:20:05.954Z,1.83
2017-07-17T18:22:33.384Z,2.50
2017-07-17T18:25:00.803Z,2.30
2017-07-17T18:27:28.233Z,2.20
2017-07-17T18:29:55.668Z,2.23
2017-07-17T18:32:23.089Z,2.20
2017-07-17T18:34:51.291Z,2.00
2017-07-17T18:37:18.702Z,2.03
2017-07-17T18:39:46.897Z,4.80
2017-07-17T18:42:14.318Z,2.97
2017-07-17T18:44:41.753Z,2.43
2017-07-17T18:47:09.170Z,2.50
2017-07-17T18:49:36.610Z,2.50
2017-07-17T18:52:04.794Z,2.37
2017-07-17T18:54:32.213Z,2.30
2017-07-17T18:56:59.642Z,2.20
2017-07-17T18:59:27.073Z,2.50
2017-07-17T19:01:54.496Z,2.40
2017-07-17T19:04:22.697Z,2.03
2017-07-17T19:06:50.107Z,2.30
2017-07-17T19:09:17.525Z,2.47
2017-07-17T19:11:44.936Z,2.30
2017-07-17T19:14:13.121Z,2.73
2017-07-17T19:16:40.543Z,2.20
2017-07-17T19:19:07.985Z,2.80
2017-07-17T19:21:35.426Z,2.50
2017-07-17T19:24:02.852Z,2.70
2017-07-17T19:26:30.276Z,2.50
2017-07-17T19:28:58.478Z,2.23
2017-07-17T19:31:25.930Z,2.73
2017-07-17T19:33:53.337Z,3.17
2017-07-17T19:36:20.770Z,2.40
2017-07-17T19:38:48.196Z,2.57
2017-07-17T19:41:16.403Z,2.50
2017-07-17T19:43:43.829Z,2.63
2017-07-17T19:46:11.271Z,2.30
2017-07-17T19:48:38.683Z,2.63
2017-07-17T19:51:06.909Z,2.50
2017-07-17T19:53:34.347Z,2.80
2017-07-17T19:56:02.658Z,3.00
2017-07-17T19:58:30.082Z,2.47
2017-07-17T20:00:58.295Z,2.60
2017-07-17T20:03:26.486Z,2.60
2017-07-17T20:05:53.888Z,2.77
2017-07-17T20:08:21.368Z,3.30
2017-07-17T20:10:48.792Z,2.93
2017-07-17T20:13:16.216Z,3.30
2017-07-17T20:15:43.667Z,3.43
2017-07-17T20:18:11.168Z,3.40
2017-07-17T20:20:38.779Z,2.93
2017-07-17T20:23:07.032Z,2.90
2017-07-17T20:25:34.452Z,3.03
2017-07-17T20:28:01.873Z,2.90
2017-07-17T20:30:29.300Z,2.70
2017-07-17T20:32:56.717Z,3.43
2017-07-17T20:35:24.961Z,3.40
2017-07-17T20:37:52.413Z,3.23
2017-07-17T20:40:19.832Z,2.77
2017-07-17T20:42:47.263Z,2.93
2017-07-17T20:45:14.692Z,3.17
2017-07-17T20:47:42.116Z,3.40
2017-07-17T20:50:10.308Z,2.60
2017-07-17T20:52:37.735Z,3.40
2017-07-17T20:55:05.935Z,3.57
2017-07-17T20:57:33.366Z,2.90
2017-07-17T21:00:01.569Z,3.47
2017-07-17T21:02:29.058Z,4.00
2017-07-17T21:04:56.539Z,3.17
2017-07-17T21:07:23.982Z,3.80
2017-07-17T21:09:51.948Z,3.37
2017-07-17T21:12:19.417Z,3.73
2017-07-17T21:14:46.887Z,3.50
2017-07-17T21:17:14.530Z,3.40
2017-07-17T21:19:42.002Z,4.27
2017-07-17T21:22:10.248Z,3.20
2017-07-17T21:24:37.730Z,4.20
2017-07-17T21:27:05.185Z,3.33
2017-07-17T21:29:32.711Z,3.93
2017-07-17T21:32:00.520Z,3.70
2017-07-17T21:34:28.031Z,3.30
2017-07-17T21:36:55.456Z,3.97
2017-07-17T21:39:22.898Z,4.03
2017-07-17T21:41:51.092Z,4.07
2017-07-17T21:44:18.746Z,4.57
2017-07-17T21:46:46.995Z,4.43
2017-07-17T21:49:14.458Z,4.43
2017-07-17T21:51:42.035Z,4.03
2017-07-17T21:54:10.271Z,4.43
2017-07-17T21:56:37.836Z,4.43
2017-07-17T21:59:06.146Z,4.47
2017-07-17T22:01:33.562Z,5.00
2017-07-17T22:04:01.077Z,5.03
2017-07-17T22:06:28.500Z,4.43
2017-07-17T22:08:56.688Z,4.97
2017-07-17T22:11:24.118Z,5.50
2017-07-17T22:13:52.343Z,4.80
2017-07-17T22:16:20.085Z,4.30
2017-07-17T22:18:47.496Z,4.50
2017-07-17T22:21:14.971Z,3.73
2017-07-17T22:23:43.157Z,4.50
2017-07-17T22:26:11.351Z,4.23
2017-07-17T22:28:38.773Z,4.33
2017-07-17T22:31:06.972Z,3.90
2017-07-17T22:33:34.396Z,4.27
2017-07-17T22:36:01.813Z,4.13
2017-07-17T22:38:29.244Z,3.63
2017-07-17T22:40:56.753Z,4.00
2017-07-17T22:43:24.180Z,3.97
2017-07-17T22:45:51.657Z,3.80
2017-07-17T22:48:19.196Z,3.73
2017-07-17T22:50:46.668Z,3.60
2017-07-17T22:53:14.117Z,3.70
2017-07-17T22:55:41.604Z,3.57
2017-07-17T22:58:09.017Z,3.57
2017-07-17T23:00:36.465Z,3.50
2017-07-17T23:03:03.894Z,3.13
2017-07-17T23:05:32.077Z,3.23
2017-07-17T23:07:59.511Z,3.43
2017-07-17T23:10:27.757Z,3.10
2017-07-17T23:12:55.173Z,3.00
2017-07-17T23:15:22.610Z,3.10
2017-07-17T23:17:50.064Z,2.63
2017-07-17T23:33:37.068Z,3.50
2017-07-17T23:36:04.506Z,3.50
2017-07-17T23:38:32.694Z,3.00
2017-07-17T23:41:00.125Z,2.97
2017-07-17T23:43:27.545Z,2.67
2017-07-17T23:45:54.968Z,3.17
2017-07-17T23:48:22.394Z,3.23
2017-07-17T23:50:50.585Z,3.00
2017-07-17T23:53:17.998Z,3.00
2017-07-17T23:55:45.425Z,3.03
2017-07-17T23:58:12.854Z,3.13
